createdAt,value
2018-07-07T00:03:12.036Z,23.91
2018-07-07T00:07:56.684Z,23.92
2018-07-07T00:12:40.826Z,23.44
2018-07-07T00:17:24.475Z,23.42
2018-07-07T00:22:08.697Z,23.76
2018-07-07T00:26:52.671Z,23.84
2018-07-07T00:31:36.434Z,23.81
2018-07-07T00:36:21.165Z,23.33
2018-07-07T00:41:04.764Z,23.40
2018-07-07T00:45:52.285Z,23.44
2018-07-07T00:50:36.058Z,23.48
2018-07-07T00:55:19.830Z,23.65
2018-07-07T01:00:03.408Z,23.07
2018-07-07T01:04:50.164Z,22.83
2018-07-07T01:09:33.675Z,23.06
2018-07-07T01:14:17.770Z,23.30
2018-07-07T01:19:01.459Z,23.16
2018-07-07T01:23:44.910Z,23.36
2018-07-07T01:28:31.677Z,23.40
2018-07-07T01:33:15.374Z,23.37
2018-07-07T01:38:00.148Z,22.98
2018-07-07T01:42:43.857Z,23.23
2018-07-07T01:47:27.719Z,22.82
2018-07-07T01:52:11.391Z,23.17
2018-07-07T01:56:54.877Z,23.17
2018-07-07T02:01:38.534Z,23.16
2018-07-07T02:06:25.462Z,23.16
2018-07-07T02:11:09.020Z,23.16
2018-07-07T02:15:55.588Z,23.14
2018-07-07T02:20:39.010Z,23.14
2018-07-07T02:25:23.593Z,23.02
2018-07-07T02:30:07.107Z,23.06
2018-07-07T02:34:54.718Z,22.99
2018-07-07T02:39:38.307Z,22.47
2018-07-07T02:44:22.796Z,21.82
2018-07-07T02:49:06.555Z,22.08
2018-07-07T02:53:50.286Z,21.82
2018-07-07T02:58:33.987Z,22.02
2018-07-07T03:03:17.662Z,21.74
2018-07-07T03:08:04.755Z,22.18
2018-07-07T03:12:48.367Z,22.45
2018-07-07T03:17:36.480Z,22.39
2018-07-07T03:22:20.090Z,22.12
2018-07-07T03:27:07.401Z,22.40
2018-07-07T03:31:51.031Z,22.49
2018-07-07T03:36:37.678Z,22.49
2018-07-07T03:41:21.441Z,22.51
2018-07-07T03:46:06.393Z,22.56
2018-07-07T03:50:51.343Z,22.57
2018-07-07T03:55:36.039Z,22.61
2018-07-07T04:00:19.593Z,22.61
2018-07-07T04:05:06.545Z,22.66
2018-07-07T04:09:50.194Z,22.56
2018-07-07T04:14:34.953Z,22.56
2018-07-07T04:19:18.555Z,22.52
2018-07-07T04:24:03.008Z,22.47
2018-07-07T04:28:47.272Z,22.57
2018-07-07T04:33:31.015Z,22.56
2018-07-07T04:38:14.577Z,22.60
2018-07-07T04:42:58.380Z,22.70
2018-07-07T04:47:47.864Z,22.71
2018-07-07T04:52:32.644Z,22.75
2018-07-07T04:57:19.907Z,22.79
2018-07-07T05:02:03.506Z,22.80
2018-07-07T05:06:50.401Z,22.71
2018-07-07T05:11:34.110Z,22.67
2018-07-07T05:16:21.620Z,22.86
2018-07-07T05:21:05.307Z,23.00
2018-07-07T05:25:52.479Z,23.02
2018-07-07T05:30:36.164Z,22.89
2018-07-07T05:35:23.670Z,23.01
2018-07-07T05:40:07.290Z,23.11
2018-07-07T05:44:54.055Z,23.32
2018-07-07T05:49:37.639Z,23.48
2018-07-07T05:54:24.499Z,23.29
2018-07-07T05:59:07.959Z,23.22
2018-07-07T06:03:52.548Z,23.26
2018-07-07T06:08:36.226Z,23.22
2018-07-07T06:13:20.034Z,23.25
2018-07-07T06:18:03.557Z,23.27
2018-07-07T06:22:47.237Z,23.36
2018-07-07T06:27:31.831Z,23.56
2018-07-07T06:32:15.337Z,23.33
2018-07-07T06:37:00.053Z,23.38
2018-07-07T06:41:43.606Z,23.55
2018-07-07T06:46:30.360Z,23.88
2018-07-07T06:51:13.899Z,23.71
2018-07-07T06:56:01.438Z,23.82
2018-07-07T07:00:45.007Z,24.51
2018-07-07T07:05:32.399Z,24.04
2018-07-07T07:10:16.055Z,24.55
2018-07-07T07:15:02.923Z,24.15
2018-07-07T07:19:46.438Z,24.24
2018-07-07T07:24:33.120Z,24.61
2018-07-07T07:29:16.506Z,24.41
2018-07-07T07:34:01.274Z,24.78
2018-07-07T07:38:44.976Z,25.18
2018-07-07T07:43:29.788Z,25.39
2018-07-07T07:48:13.489Z,25.88
2018-07-07T07:52:57.069Z,26.39
2018-07-07T07:57:40.655Z,25.37
2018-07-07T08:02:24.221Z,26.24
2018-07-07T08:07:11.122Z,25.89
2018-07-07T08:11:54.693Z,26.27
2018-07-07T08:16:38.469Z,25.71
2018-07-07T08:21:22.030Z,25.85
2018-07-07T08:26:10.559Z,25.79
2018-07-07T08:30:54.968Z,25.99
2018-07-07T08:35:42.039Z,26.35
2018-07-07T08:40:25.792Z,26.50
2018-07-07T08:45:09.514Z,26.49
2018-07-07T08:49:53.083Z,26.31
2018-07-07T08:54:38.295Z,26.82
2018-07-07T08:59:21.861Z,26.82
2018-07-07T09:04:05.725Z,26.82
2018-07-07T09:08:49.179Z,26.69
2018-07-07T09:13:32.992Z,26.89
2018-07-07T09:18:16.471Z,27.49
2018-07-07T09:23:01.351Z,27.28
2018-07-07T09:27:45.416Z,27.64
2018-07-07T09:32:29.160Z,27.61
2018-07-07T09:37:12.829Z,27.46
2018-07-07T09:41:56.763Z,27.85
2018-07-07T09:46:44.011Z,28.01
2018-07-07T09:51:27.536Z,27.58
2018-07-07T09:56:13.221Z,28.01
2018-07-07T10:00:56.879Z,27.39
2018-07-07T10:05:42.108Z,27.23
2018-07-07T10:10:25.878Z,27.16
2018-07-07T10:15:10.491Z,26.78
2018-07-07T10:19:54.192Z,26.68
2018-07-07T10:24:38.930Z,26.78
2018-07-07T10:29:22.775Z,26.56
2018-07-07T10:34:06.650Z,27.28
2018-07-07T10:38:50.200Z,27.59
2018-07-07T10:43:33.878Z,27.22
2018-07-07T10:48:17.418Z,27.37
2018-07-07T10:53:00.810Z,27.75
2018-07-07T10:57:44.353Z,27.57
2018-07-07T11:02:28.732Z,27.37
2018-07-07T11:07:12.322Z,27.68
2018-07-07T11:11:56.035Z,28.09
2018-07-07T11:16:40.565Z,28.22
2018-07-07T11:21:24.171Z,27.95
2018-07-07T11:26:08.068Z,27.95
2018-07-07T11:30:51.604Z,28.15
2018-07-07T11:35:38.688Z,28.13
2018-07-07T11:40:22.310Z,27.78
2018-07-07T11:45:07.013Z,28.13
2018-07-07T11:49:50.787Z,27.66
2018-07-07T11:54:37.470Z,27.82
2018-07-07T11:59:21.053Z,27.80
2018-07-07T12:04:05.756Z,27.84
2018-07-07T12:08:49.702Z,27.51
2018-07-07T12:13:33.623Z,27.70
2018-07-07T12:18:17.387Z,27.71
2018-07-07T12:23:01.433Z,27.53
2018-07-07T12:27:45.626Z,27.76
2018-07-07T12:32:29.398Z,27.50
2018-07-07T12:37:13.332Z,27.55
2018-07-07T12:41:56.924Z,27.58
2018-07-07T12:46:43.943Z,27.68
2018-07-07T12:51:27.804Z,27.52
2018-07-07T12:56:12.557Z,27.49
2018-07-07T13:00:59.310Z,27.47
2018-07-07T13:05:43.179Z,27.61
2018-07-07T13:10:27.730Z,27.48
2018-07-07T13:15:11.399Z,27.36
2018-07-07T13:19:55.402Z,27.49
2018-07-07T13:24:41.490Z,27.51
2018-07-07T13:29:26.158Z,27.67
2018-07-07T13:34:09.953Z,27.43
2018-07-07T13:38:54.643Z,27.54
2018-07-07T13:43:42.820Z,27.43
2018-07-07T13:48:27.892Z,27.49
2018-07-07T13:53:11.790Z,27.44
2018-07-07T13:57:56.792Z,27.39
2018-07-07T14:02:45.197Z,27.33
2018-07-07T14:07:29.050Z,27.40
2018-07-07T14:12:12.763Z,27.35
2018-07-07T14:16:56.385Z,27.44
2018-07-07T14:21:40.256Z,27.45
2018-07-07T14:26:25.133Z,27.37
2018-07-07T14:31:08.931Z,27.47
2018-07-07T14:35:52.677Z,27.47
2018-07-07T14:40:37.067Z,27.32
2018-07-07T14:45:29.102Z,27.40
2018-07-07T14:50:13.374Z,27.27
2018-07-07T14:54:57.337Z,27.36
2018-07-07T14:59:41.724Z,27.33
2018-07-07T15:04:25.591Z,27.39
2018-07-07T15:09:09.536Z,27.39
2018-07-07T15:13:53.531Z,27.36
2018-07-07T15:18:44.472Z,27.36
2018-07-07T15:23:32.014Z,27.37
2018-07-07T15:28:17.117Z,27.38
2018-07-07T15:33:05.931Z,27.38
2018-07-07T15:38:04.235Z,27.10
2018-07-07T15:42:52.866Z,27.05
2018-07-07T15:47:40.459Z,27.34
2018-07-07T15:52:24.830Z,27.35
2018-07-07T15:57:08.747Z,27.23
2018-07-07T16:01:52.574Z,27.18
2018-07-07T16:06:36.189Z,27.21
2018-07-07T16:11:20.093Z,27.44
2018-07-07T16:16:05.084Z,27.38
2018-07-07T16:20:49.016Z,27.43
2018-07-07T16:25:32.894Z,27.41
2018-07-07T16:30:16.682Z,27.36
2018-07-07T16:35:03.551Z,27.23
2018-07-07T16:39:47.174Z,27.22
2018-07-07T16:44:31.920Z,27.37
2018-07-07T16:49:19.013Z,27.41
2018-07-07T16:54:07.709Z,27.36
2018-07-07T16:58:52.557Z,27.22
2018-07-07T17:03:39.247Z,27.32
2018-07-07T17:08:25.762Z,27.32
2018-07-07T17:13:15.031Z,27.06
2018-07-07T17:17:59.437Z,27.25
2018-07-07T17:22:44.555Z,26.65
2018-07-07T17:27:28.098Z,27.07
2018-07-07T17:32:12.720Z,26.68
2018-07-07T17:36:56.720Z,26.83
2018-07-07T17:41:41.467Z,26.62
2018-07-07T17:46:29.206Z,26.77
2018-07-07T17:51:13.967Z,26.56
2018-07-07T17:56:01.724Z,26.68
2018-07-07T18:00:45.199Z,26.61
2018-07-07T18:05:29.998Z,26.61
2018-07-07T18:10:13.582Z,26.55
2018-07-07T18:14:59.534Z,26.48
2018-07-07T18:19:43.918Z,26.49
2018-07-07T18:24:44.858Z,26.40
2018-07-07T18:29:28.869Z,26.15
2018-07-07T18:34:15.640Z,25.75
2018-07-07T18:38:59.306Z,25.88
2018-07-07T18:43:42.822Z,26.08
2018-07-07T18:48:26.406Z,25.69
2018-07-07T18:53:10.927Z,25.90
2018-07-07T18:57:54.511Z,25.77
2018-07-07T19:02:38.403Z,25.64
2018-07-07T19:07:21.948Z,25.73
2018-07-07T19:12:06.573Z,25.72
2018-07-07T19:16:50.294Z,25.74
2018-07-07T19:21:39.645Z,25.76
2018-07-07T19:26:28.637Z,25.54
2018-07-07T19:31:12.336Z,25.55
2018-07-07T19:36:01.291Z,25.46
2018-07-07T19:40:45.333Z,25.48
2018-07-07T19:45:33.309Z,25.54
2018-07-07T19:50:17.219Z,25.42
2018-07-07T19:55:04.528Z,25.13
2018-07-07T19:59:48.178Z,25.18
2018-07-07T20:04:34.860Z,25.37
2018-07-07T20:09:19.019Z,25.35
2018-07-07T20:14:02.863Z,25.24
2018-07-07T20:19:02.523Z,24.99
2018-07-07T20:23:47.059Z,25.26
2018-07-07T20:28:36.578Z,25.37
2018-07-07T20:33:23.183Z,25.34
2018-07-07T20:38:06.940Z,25.38
2018-07-07T20:42:50.938Z,25.00
2018-07-07T20:47:34.522Z,25.14
2018-07-07T20:52:18.326Z,25.11
2018-07-07T20:57:01.895Z,25.04
2018-07-07T21:01:46.647Z,25.16
2018-07-07T21:06:31.748Z,25.19
2018-07-07T21:11:16.484Z,25.11
2018-07-07T21:15:59.830Z,25.11
2018-07-07T21:20:43.669Z,25.06
2018-07-07T21:25:28.307Z,24.98
2018-07-07T21:30:11.929Z,25.04
2018-07-07T21:34:56.555Z,24.98
2018-07-07T21:39:40.514Z,24.87
2018-07-07T21:44:24.125Z,24.65
2018-07-07T21:49:07.661Z,24.81
2018-07-07T21:53:51.535Z,24.55
2018-07-07T21:58:35.257Z,24.65
2018-07-07T22:03:24.239Z,24.70
2018-07-07T22:08:13.151Z,24.72
2018-07-07T22:12:57.050Z,24.67
2018-07-07T22:17:48.920Z,24.54
2018-07-07T22:22:33.397Z,24.41
2018-07-07T22:27:16.951Z,24.60
2018-07-07T22:32:02.297Z,24.49
2018-07-07T22:36:45.861Z,24.29
2018-07-07T22:42:00.157Z,24.22
2018-07-07T22:46:43.703Z,24.24
2018-07-07T22:51:27.461Z,24.29
2018-07-07T22:56:11.070Z,24.36
2018-07-07T23:00:54.724Z,24.17
2018-07-07T23:05:38.328Z,24.30
2018-07-07T23:10:21.861Z,24.08
2018-07-07T23:15:05.326Z,24.26
2018-07-07T23:19:49.003Z,24.37
2018-07-07T23:24:32.965Z,24.28
2018-07-07T23:29:16.407Z,24.33
2018-07-07T23:33:59.992Z,24.13
2018-07-07T23:38:44.381Z,23.87
2018-07-07T23:43:28.073Z,23.90
2018-07-07T23:48:11.664Z,24.04
2018-07-07T23:52:55.459Z,23.99
2018-07-07T23:57:38.983Z,23.61
